nws-alerts: Checking more than four warning/county codes can delay the loading of your pages. You should use a cron job to get the data.
EllijayWeather Station Historical Data
Daily Summary for February 2, 2019 Units:  English    Metric   Both
Daily Weekly Monthly Yearly Custom
  High: Low: Average:
Temperature: 64.6 °F 27.1 °F 44.7 °F
Dew Point: 39.4 °F 24.4 °F 32.1 °F
Humidity: 91% 34% 66%
Wind Speed: 2.9mph 0.0mph 0mph
Wind Gust: 4.0mph - -
Wind- - West
Pressure: 30.38 in 30.21 in -
Precipitation: 0.00 in    
Historical Graphs
 
 
Tabular Data for February 2, 2019
Time Temperature Dew Point Pressure Wind Wind Speed Wind Gust Humidity Rainfall Rate (Hourly) solar
00:04 33.1 °F 27.0 °F 30.38 in Calm     78% 0.00 in meteobridge W/m2
00:09 33.1 °F 27.3 °F 30.38 in Calm     79% 0.00 in meteobridge W/m2
00:14 32.7 °F 27.0 °F 30.37 in Calm     79% 0.00 in meteobridge W/m2
00:19 32.5 °F 26.8 °F 30.37 in Calm     79% 0.00 in meteobridge W/m2
00:24 32.5 °F 27.1 °F 30.38 in Calm     80% 0.00 in meteobridge W/m2
00:29 32.4 °F 27.0 °F 30.38 in Calm     80% 0.00 in meteobridge W/m2
00:34 32.2 °F 26.8 °F 30.38 in Calm     80% 0.00 in meteobridge W/m2
00:39 32.2 °F 26.8 °F 30.38 in Calm     80% 0.00 in meteobridge W/m2
00:44 32.0 °F 26.6 °F 30.38 in Calm     80% 0.00 in meteobridge W/m2
00:49 32.0 °F 26.8 °F 30.38 in Calm     81% 0.00 in meteobridge W/m2
00:54 32.0 °F 26.8 °F 30.38 in Calm     81% 0.00 in meteobridge W/m2
00:59 32.0 °F 26.8 °F 30.38 in Calm     81% 0.00 in meteobridge W/m2
01:04 31.8 °F 26.6 °F 30.38 in Calm     81% 0.00 in meteobridge W/m2
01:09 31.8 °F 26.6 °F 30.38 in Calm     81% 0.00 in meteobridge W/m2
01:14 31.6 °F 26.8 °F 30.38 in Calm     82% 0.00 in meteobridge W/m2
01:19 31.3 °F 26.1 °F 30.38 in Calm     81% 0.00 in meteobridge W/m2
01:24 31.1 °F 26.2 °F 30.38 in Calm     82% 0.00 in meteobridge W/m2
01:29 30.9 °F 26.1 °F 30.38 in Calm     82% 0.00 in meteobridge W/m2
01:34 30.7 °F 25.9 °F 30.38 in Calm     82% 0.00 in meteobridge W/m2
01:38 30.7 °F 26.2 °F 30.38 in Calm     83% 0.00 in meteobridge W/m2
01:44 30.4 °F 25.9 °F 30.37 in Calm     83% 0.00 in meteobridge W/m2
01:49 30.4 °F 25.9 °F 30.37 in Calm     83% 0.00 in meteobridge W/m2
01:54 30.4 °F 25.9 °F 30.37 in Calm     83% 0.00 in meteobridge W/m2
01:59 30.0 °F 25.7 °F 30.37 in Calm     84% 0.00 in meteobridge W/m2
02:04 30.0 °F 25.7 °F 30.37 in Calm     84% 0.00 in meteobridge W/m2
02:09 29.8 °F 25.9 °F 30.37 in Calm     85% 0.00 in meteobridge W/m2
02:14 29.7 °F 25.7 °F 30.37 in Calm     85% 0.00 in meteobridge W/m2
02:19 29.7 °F 25.7 °F 30.37 in Calm     85% 0.00 in meteobridge W/m2
02:24 29.5 °F 25.5 °F 30.37 in Calm     85% 0.00 in meteobridge W/m2
02:29 29.5 °F 25.9 °F 30.37 in Calm     86% 0.00 in meteobridge W/m2
02:34 29.3 °F 25.7 °F 30.37 in Calm     86% 0.00 in meteobridge W/m2
02:39 29.1 °F 25.2 °F 30.37 in Calm     85% 0.00 in meteobridge W/m2
02:44 29.1 °F 25.5 °F 30.37 in Calm     86% 0.00 in meteobridge W/m2
02:49 28.9 °F 25.3 °F 30.37 in Calm     86% 0.00 in meteobridge W/m2
02:54 28.9 °F 25.3 °F 30.37 in Calm     86% 0.00 in meteobridge W/m2
02:59 28.9 °F 25.3 °F 30.37 in Calm     86% 0.00 in meteobridge W/m2
03:04 28.9 °F 25.3 °F 30.37 in Calm     86% 0.00 in meteobridge W/m2
03:09 28.9 °F 25.3 °F 30.37 in Calm     86% 0.00 in meteobridge W/m2
03:14 29.1 °F 25.5 °F 30.37 in Calm     86% 0.00 in meteobridge W/m2
03:19 29.1 °F 25.5 °F 30.37 in Calm     86% 0.00 in meteobridge W/m2
03:24 28.9 °F 25.3 °F 30.37 in Calm     86% 0.00 in meteobridge W/m2
03:29 28.9 °F 25.3 °F 30.37 in Calm     86% 0.00 in meteobridge W/m2
03:34 28.9 °F 25.3 °F 30.37 in Calm     86% 0.00 in meteobridge W/m2
03:39 28.9 °F 25.3 °F 30.37 in Calm     86% 0.00 in meteobridge W/m2
03:44 28.8 °F 25.2 °F 30.37 in Calm     86% 0.00 in meteobridge W/m2
03:49 28.8 °F 25.2 °F 30.37 in Calm     86% 0.00 in meteobridge W/m2
03:54 28.8 °F 25.2 °F 30.37 in Calm     86% 0.00 in meteobridge W/m2
03:59 28.8 °F 25.2 °F 30.37 in Calm     86% 0.00 in meteobridge W/m2
04:04 28.8 °F 25.3 °F 30.37 in Calm     87% 0.00 in meteobridge W/m2
04:09 28.6 °F 25.2 °F 30.37 in Calm     87% 0.00 in meteobridge W/m2
04:14 28.4 °F 25.3 °F 30.37 in Calm     88% 0.00 in meteobridge W/m2
04:19 28.4 °F 25.3 °F 30.37 in Calm     88% 0.00 in meteobridge W/m2
04:24 28.2 °F 25.2 °F 30.37 in Calm     88% 0.00 in meteobridge W/m2
04:29 28.0 °F 25.0 °F 30.37 in Calm     88% 0.00 in meteobridge W/m2
04:34 28.0 °F 25.0 °F 30.36 in Calm     88% 0.00 in meteobridge W/m2
04:39 27.9 °F 24.8 °F 30.36 in Calm     88% 0.00 in meteobridge W/m2
04:44 27.9 °F 25.0 °F 30.37 in Calm     89% 0.00 in meteobridge W/m2
04:49 27.9 °F 25.0 °F 30.37 in Calm     89% 0.00 in meteobridge W/m2
04:54 27.9 °F 25.0 °F 30.37 in Calm     89% 0.00 in meteobridge W/m2
04:59 27.9 °F 25.0 °F 30.37 in Calm     89% 0.00 in meteobridge W/m2
05:04 27.9 °F 25.0 °F 30.37 in Calm     89% 0.00 in meteobridge W/m2
05:09 27.9 °F 25.0 °F 30.37 in Calm     89% 0.00 in meteobridge W/m2
05:14 27.9 °F 25.0 °F 30.37 in Calm     89% 0.00 in meteobridge W/m2
05:19 27.9 °F 25.0 °F 30.37 in Calm     89% 0.00 in meteobridge W/m2
05:24 27.9 °F 25.0 °F 30.37 in Calm     89% 0.00 in meteobridge W/m2
05:29 27.9 °F 25.0 °F 30.37 in Calm     89% 0.00 in meteobridge W/m2
05:34 27.9 °F 25.0 °F 30.37 in Calm     89% 0.00 in meteobridge W/m2
05:39 27.9 °F 25.0 °F 30.37 in Calm     89% 0.00 in meteobridge W/m2
05:44 27.9 °F 25.0 °F 30.37 in Calm     89% 0.00 in meteobridge W/m2
05:49 27.9 °F 25.0 °F 30.37 in Calm     89% 0.00 in meteobridge W/m2
05:54 27.9 °F 25.0 °F 30.37 in Calm     89% 0.00 in meteobridge W/m2
05:59 27.9 °F 25.0 °F 30.37 in Calm     89% 0.00 in meteobridge W/m2
06:04 27.9 °F 25.0 °F 30.37 in Calm     89% 0.00 in meteobridge W/m2
06:09 27.9 °F 25.0 °F 30.37 in Calm     89% 0.00 in meteobridge W/m2
06:14 27.9 °F 25.0 °F 30.37 in Calm     89% 0.00 in meteobridge W/m2
06:19 27.7 °F 24.8 °F 30.37 in Calm     89% 0.00 in meteobridge W/m2
06:24 27.9 °F 25.0 °F 30.37 in Calm     89% 0.00 in meteobridge W/m2
06:29 27.7 °F 24.8 °F 30.37 in Calm     89% 0.00 in meteobridge W/m2
06:34 27.7 °F 24.8 °F 30.37 in Calm     89% 0.00 in meteobridge W/m2
06:39 27.7 °F 24.8 °F 30.37 in Calm     89% 0.00 in meteobridge W/m2
06:44 27.5 °F 24.6 °F 30.37 in Calm     89% 0.00 in meteobridge W/m2
06:49 27.5 °F 24.6 °F 30.37 in Calm     89% 0.00 in meteobridge W/m2
06:54 27.5 °F 24.6 °F 30.37 in Calm     89% 0.00 in meteobridge W/m2
06:59 27.5 °F 24.6 °F 30.37 in Calm     89% 0.00 in meteobridge W/m2
07:04 27.3 °F 24.4 °F 30.37 in Calm     89% 0.00 in meteobridge W/m2
07:09 27.3 °F 24.8 °F 30.37 in Calm     90% 0.00 in meteobridge W/m2
07:14 27.3 °F 24.8 °F 30.37 in Calm     90% 0.00 in meteobridge W/m2
07:19 27.3 °F 24.8 °F 30.37 in Calm     90% 0.00 in meteobridge W/m2
07:24 27.3 °F 24.8 °F 30.37 in Calm     90% 0.00 in meteobridge W/m2
07:29 27.3 °F 24.8 °F 30.37 in Calm     90% 0.00 in meteobridge W/m2
07:34 27.1 °F 24.6 °F 30.37 in Calm     90% 0.00 in meteobridge W/m2
07:39 27.1 °F 24.6 °F 30.37 in Calm     90% 0.00 in meteobridge W/m2
07:44 27.1 °F 24.6 °F 30.37 in Calm     90% 0.00 in meteobridge W/m2
07:49 27.1 °F 24.6 °F 30.37 in Calm     90% 0.00 in meteobridge W/m2
07:54 27.1 °F 24.6 °F 30.37 in Calm     90% 0.00 in meteobridge W/m2
07:59 27.3 °F 25.0 °F 30.37 in Calm     91% 0.00 in meteobridge W/m2
08:04 27.3 °F 24.8 °F 30.37 in Calm     90% 0.00 in meteobridge W/m2
08:09 27.5 °F 25.2 °F 30.37 in Calm     91% 0.00 in meteobridge W/m2
08:14 27.7 °F 25.2 °F 30.37 in Calm     90% 0.00 in meteobridge W/m2
08:19 27.9 °F 25.5 °F 30.37 in Calm     91% 0.00 in meteobridge W/m2
08:24 27.9 °F 25.5 °F 30.37 in Calm     91% 0.00 in meteobridge W/m2
08:29 28.0 °F 25.5 °F 30.37 in Calm     90% 0.00 in meteobridge W/m2
08:34 28.4 °F 25.9 °F 30.37 in Calm     90% 0.00 in meteobridge W/m2
08:39 28.8 °F 26.2 °F 30.37 in Calm     90% 0.00 in meteobridge W/m2
08:44 28.9 °F 26.4 °F 30.37 in Calm     90% 0.00 in meteobridge W/m2
08:49 29.1 °F 26.6 °F 30.37 in Calm     90% 0.00 in meteobridge W/m2
08:54 29.5 °F 27.0 °F 30.37 in Calm     90% 0.00 in meteobridge W/m2
08:59 29.7 °F 27.1 °F 30.37 in Calm     90% 0.00 in meteobridge W/m2
09:04 29.8 °F 27.5 °F 30.37 in Calm     91% 0.00 in meteobridge W/m2
09:09 30.4 °F 28.0 °F 30.37 in Calm     91% 0.00 in meteobridge W/m2
09:14 30.7 °F 28.4 °F 30.37 in Calm     91% 0.00 in meteobridge W/m2
09:19 31.1 °F 28.8 °F 30.37 in Calm     91% 0.00 in meteobridge W/m2
09:24 31.6 °F 29.1 °F 30.37 in Calm     90% 0.00 in meteobridge W/m2
09:29 32.4 °F 29.8 °F 30.37 in Calm     90% 0.00 in meteobridge W/m2
09:34 33.3 °F 30.0 °F 30.37 in Calm     88% 0.00 in meteobridge W/m2
09:39 34.2 °F 30.2 °F 30.37 in Calm     85% 0.00 in meteobridge W/m2
09:44 35.2 °F 31.5 °F 30.37 in Calm     86% 0.00 in meteobridge W/m2
09:49 36.5 °F 32.7 °F 30.37 in Calm     86% 0.00 in meteobridge W/m2
09:54 37.2 °F 32.0 °F 30.37 in Calm     81% 0.00 in meteobridge W/m2
09:59 38.7 °F 32.4 °F 30.37 in Calm     78% 0.00 in meteobridge W/m2
10:04 39.9 °F 32.9 °F 30.37 in Calm     76% 0.00 in meteobridge W/m2
10:09 41.0 °F 32.7 °F 30.37 in Calm     72% 0.00 in meteobridge W/m2
10:14 42.4 °F 33.1 °F 30.37 in Calm     69% 0.00 in meteobridge W/m2
10:19 44.1 °F 34.5 °F 30.37 in Calm     69% 0.00 in meteobridge W/m2
10:24 45.1 °F 34.5 °F 30.37 in Calm     66% 0.00 in meteobridge W/m2
10:29 46.4 °F 33.6 °F 30.37 in Calm     61% 0.00 in meteobridge W/m2
10:34 47.1 °F 34.0 °F 30.37 in Calm   1.0 mph 60% 0.00 in meteobridge W/m2
10:39 48.2 °F 32.7 °F 30.37 in NNW 0.9 mph 1.0 mph 55% 0.00 in meteobridge W/m2
10:44 49.3 °F 33.3 °F 30.37 in Calm   1.0 mph 54% 0.00 in meteobridge W/m2
10:49 50.2 °F 33.6 °F 30.37 in Calm   1.0 mph 53% 0.00 in meteobridge W/m2
10:54 51.3 °F 33.3 °F 30.37 in WNW 0.9 mph 3.0 mph 50% 0.00 in meteobridge W/m2
10:59 52.2 °F 34.2 °F 30.37 in NW 2.0 mph 4.0 mph 50% 0.00 in meteobridge W/m2
11:04 52.9 °F 33.3 °F 30.36 in Calm   3.0 mph 47% 0.00 in meteobridge W/m2
11:09 53.8 °F 33.4 °F 30.36 in Calm   2.0 mph 46% 0.00 in meteobridge W/m2
11:14 54.3 °F 32.9 °F 30.36 in NW 2.9 mph 3.0 mph 44% 0.00 in meteobridge W/m2
11:19 54.9 °F 32.7 °F 30.36 in Calm   1.0 mph 43% 0.00 in meteobridge W/m2
11:24 55.4 °F 33.3 °F 30.36 in Calm   2.0 mph 43% 0.00 in meteobridge W/m2
11:29 55.9 °F 33.3 °F 30.35 in Calm     42% 0.00 in meteobridge W/m2
11:34 56.5 °F 33.1 °F 30.35 in Calm     41% 0.00 in meteobridge W/m2
11:39 56.8 °F 34.5 °F 30.35 in Calm     43% 0.00 in meteobridge W/m2
11:44 57.4 °F 33.3 °F 30.35 in Calm     40% 0.00 in meteobridge W/m2
11:49 57.9 °F 33.1 °F 30.34 in Calm     39% 0.00 in meteobridge W/m2
11:54 58.5 °F 32.9 °F 30.34 in Calm   1.0 mph 38% 0.00 in meteobridge W/m2
11:59 58.8 °F 33.3 °F 30.34 in Calm   1.0 mph 38% 0.00 in meteobridge W/m2
12:04 59.4 °F 33.1 °F 30.34 in Calm   1.0 mph 37% 0.00 in meteobridge W/m2
12:09 59.5 °F 34.0 °F 30.34 in Calm   3.0 mph 38% 0.00 in meteobridge W/m2
12:14 60.1 °F 33.8 °F 30.33 in Calm   1.0 mph 37% 0.00 in meteobridge W/m2
12:19 60.4 °F 35.4 °F 30.33 in Calm     39% 0.00 in meteobridge W/m2
12:24 61.0 °F 35.2 °F 30.33 in Calm   1.0 mph 38% 0.00 in meteobridge W/m2
12:29 61.5 °F 35.6 °F 30.32 in Calm     38% 0.00 in meteobridge W/m2
12:34 61.5 °F 36.3 °F 30.32 in Calm   1.0 mph 39% 0.00 in meteobridge W/m2
12:39 61.9 °F 36.0 °F 30.32 in Calm     38% 0.00 in meteobridge W/m2
12:44 61.9 °F 35.2 °F 30.32 in Calm     37% 0.00 in meteobridge W/m2
12:49 61.9 °F 36.0 °F 30.31 in Calm   2.0 mph 38% 0.00 in meteobridge W/m2
12:54 61.9 °F 36.0 °F 30.31 in Calm     38% 0.00 in meteobridge W/m2
12:59 62.2 °F 37.0 °F 30.30 in Calm   1.0 mph 39% 0.00 in meteobridge W/m2
13:04 62.4 °F 36.5 °F 30.30 in Calm   2.0 mph 38% 0.00 in meteobridge W/m2
13:09 62.6 °F 36.0 °F 30.30 in Calm     37% 0.00 in meteobridge W/m2
13:14 63.0 °F 36.3 °F 30.29 in Calm     37% 0.00 in meteobridge W/m2
13:19 63.3 °F 36.0 °F 30.29 in Calm     36% 0.00 in meteobridge W/m2
13:24 63.5 °F 36.1 °F 30.29 in Calm   2.0 mph 36% 0.00 in meteobridge W/m2
13:29 63.5 °F 36.1 °F 30.29 in Calm   3.0 mph 36% 0.00 in meteobridge W/m2
13:34 63.5 °F 35.4 °F 30.28 in NNE 0.9 mph 1.0 mph 35% 0.00 in meteobridge W/m2
13:39 63.9 °F 35.6 °F 30.28 in Calm   1.0 mph 35% 0.00 in meteobridge W/m2
13:44 63.9 °F 35.6 °F 30.28 in Calm     35% 0.00 in meteobridge W/m2
13:49 64.2 °F 36.7 °F 30.28 in Calm   2.0 mph 36% 0.00 in meteobridge W/m2
13:54 64.4 °F 35.4 °F 30.27 in Calm   1.0 mph 34% 0.00 in meteobridge W/m2
13:59 64.6 °F 36.3 °F 30.27 in Calm   1.0 mph 35% 0.00 in meteobridge W/m2
14:04 64.6 °F 36.3 °F 30.27 in Calm     35% 0.00 in meteobridge W/m2
14:09 64.6 °F 37.0 °F 30.27 in Calm   1.0 mph 36% 0.00 in meteobridge W/m2
14:14 64.6 °F 37.0 °F 30.26 in Calm   1.0 mph 36% 0.00 in meteobridge W/m2
14:19 64.6 °F 36.3 °F 30.26 in Calm   1.0 mph 35% 0.00 in meteobridge W/m2
14:24 64.6 °F 36.3 °F 30.26 in Calm   1.0 mph 35% 0.00 in meteobridge W/m2
14:29 64.4 °F 36.9 °F 30.26 in NW 2.0 mph 2.0 mph 36% 0.00 in meteobridge W/m2
14:34 64.0 °F 35.8 °F 30.25 in NW 0.9 mph 1.0 mph 35% 0.00 in meteobridge W/m2
14:38 63.9 °F 37.0 °F 30.25 in Calm     37% 0.00 in meteobridge W/m2
14:44 63.7 °F 38.3 °F 30.25 in Calm     39% 0.00 in meteobridge W/m2
14:49 63.7 °F 36.9 °F 30.25 in Calm   1.0 mph 37% 0.00 in meteobridge W/m2
14:54 63.7 °F 37.6 °F 30.25 in Calm     38% 0.00 in meteobridge W/m2
14:59 63.9 °F 37.0 °F 30.24 in Calm   2.0 mph 37% 0.00 in meteobridge W/m2
15:04 64.0 °F 37.2 °F 30.24 in Calm     37% 0.00 in meteobridge W/m2
15:09 64.0 °F 36.5 °F 30.24 in Calm     36% 0.00 in meteobridge W/m2
15:14 64.0 °F 36.5 °F 30.24 in Calm   2.0 mph 36% 0.00 in meteobridge W/m2
15:19 64.0 °F 37.2 °F 30.24 in Calm     37% 0.00 in meteobridge W/m2
15:24 64.0 °F 37.2 °F 30.24 in Calm   2.0 mph 37% 0.00 in meteobridge W/m2
15:29 64.0 °F 37.2 °F 30.23 in Calm   1.0 mph 37% 0.00 in meteobridge W/m2
15:34 64.0 °F 37.2 °F 30.23 in Calm   1.0 mph 37% 0.00 in meteobridge W/m2
15:39 64.0 °F 37.2 °F 30.23 in Calm   1.0 mph 37% 0.00 in meteobridge W/m2
15:44 64.0 °F 37.9 °F 30.23 in Calm   1.0 mph 38% 0.00 in meteobridge W/m2
15:49 64.2 °F 36.7 °F 30.23 in Calm   2.0 mph 36% 0.00 in meteobridge W/m2
15:54 64.0 °F 37.9 °F 30.23 in Calm     38% 0.00 in meteobridge W/m2
15:59 64.0 °F 38.7 °F 30.23 in Calm     39% 0.00 in meteobridge W/m2
16:04 63.9 °F 37.8 °F 30.22 in Calm     38% 0.00 in meteobridge W/m2
16:09 63.7 °F 36.9 °F 30.22 in Calm   1.0 mph 37% 0.00 in meteobridge W/m2
16:14 63.7 °F 37.6 °F 30.22 in Calm     38% 0.00 in meteobridge W/m2
16:19 63.9 °F 37.8 °F 30.22 in Calm     38% 0.00 in meteobridge W/m2
16:24 63.7 °F 38.3 °F 30.22 in Calm   1.0 mph 39% 0.00 in meteobridge W/m2
16:29 63.3 °F 37.9 °F 30.22 in Calm     39% 0.00 in meteobridge W/m2
16:34 63.1 °F 37.8 °F 30.22 in Calm     39% 0.00 in meteobridge W/m2
16:39 63.0 °F 38.3 °F 30.22 in Calm   1.0 mph 40% 0.00 in meteobridge W/m2
16:44 62.8 °F 38.1 °F 30.22 in Calm     40% 0.00 in meteobridge W/m2
16:49 62.4 °F 37.2 °F 30.22 in Calm   1.0 mph 39% 0.00 in meteobridge W/m2
16:54 62.2 °F 39.4 °F 30.21 in Calm     43% 0.00 in meteobridge W/m2
16:59 62.1 °F 38.1 °F 30.22 in Calm     41% 0.00 in meteobridge W/m2
17:04 61.9 °F 37.9 °F 30.22 in Calm     41% 0.00 in meteobridge W/m2
17:09 61.9 °F 37.2 °F 30.22 in Calm     40% 0.00 in meteobridge W/m2
17:14 61.5 °F 37.6 °F 30.22 in Calm     41% 0.00 in meteobridge W/m2
17:19 61.3 °F 36.9 °F 30.22 in Calm     40% 0.00 in meteobridge W/m2
17:24 61.3 °F 37.4 °F 30.21 in Calm     41% 0.00 in meteobridge W/m2
17:29 61.2 °F 37.2 °F 30.21 in Calm     41% 0.00 in meteobridge W/m2
17:34 60.8 °F 36.9 °F 30.21 in Calm     41% 0.00 in meteobridge W/m2
17:39 60.6 °F 36.9 °F 30.21 in Calm     41% 0.00 in meteobridge W/m2
17:43 60.4 °F 37.8 °F 30.21 in Calm     43% 0.00 in meteobridge W/m2
17:49 59.9 °F 36.7 °F 30.21 in Calm     42% 0.00 in meteobridge W/m2
17:54 59.5 °F 36.5 °F 30.22 in Calm     42% 0.00 in meteobridge W/m2
17:59 59.2 °F 36.7 °F 30.22 in Calm     43% 0.00 in meteobridge W/m2
18:04 58.8 °F 37.0 °F 30.22 in Calm     44% 0.00 in meteobridge W/m2
18:08 58.5 °F 36.7 °F 30.22 in Calm     44% 0.00 in meteobridge W/m2
18:14 57.9 °F 36.7 °F 30.22 in Calm     45% 0.00 in meteobridge W/m2
18:19 57.6 °F 36.3 °F 30.22 in Calm     45% 0.00 in meteobridge W/m2
18:24 57.0 °F 37.0 °F 30.22 in Calm     47% 0.00 in meteobridge W/m2
18:29 56.5 °F 37.0 °F 30.22 in Calm     48% 0.00 in meteobridge W/m2
18:34 55.8 °F 37.4 °F 30.22 in Calm     50% 0.00 in meteobridge W/m2
18:39 55.2 °F 37.4 °F 30.22 in Calm     51% 0.00 in meteobridge W/m2
18:44 54.9 °F 37.6 °F 30.22 in Calm     52% 0.00 in meteobridge W/m2
18:49 54.5 °F 37.8 °F 30.22 in Calm     53% 0.00 in meteobridge W/m2
18:54 54.1 °F 37.4 °F 30.22 in Calm     53% 0.00 in meteobridge W/m2
18:59 53.8 °F 37.6 °F 30.22 in Calm     54% 0.00 in meteobridge W/m2
19:04 53.6 °F 37.4 °F 30.23 in Calm     54% 0.00 in meteobridge W/m2
19:09 53.2 °F 37.4 °F 30.22 in Calm     55% 0.00 in meteobridge W/m2
19:14 53.1 °F 37.4 °F 30.23 in Calm     55% 0.00 in meteobridge W/m2
19:19 52.9 °F 37.6 °F 30.22 in Calm     56% 0.00 in meteobridge W/m2
19:24 52.5 °F 37.8 °F 30.22 in Calm     57% 0.00 in meteobridge W/m2
19:29 52.3 °F 37.6 °F 30.23 in Calm     57% 0.00 in meteobridge W/m2
19:34 52.2 °F 36.9 °F 30.23 in Calm     56% 0.00 in meteobridge W/m2
19:39 52.0 °F 37.2 °F 30.23 in Calm     57% 0.00 in meteobridge W/m2
19:44 51.8 °F 37.9 °F 30.23 in Calm     59% 0.00 in meteobridge W/m2
19:49 51.6 °F 37.4 °F 30.23 in Calm     58% 0.00 in meteobridge W/m2
19:54 51.4 °F 37.6 °F 30.23 in Calm     59% 0.00 in meteobridge W/m2
19:59 51.3 °F 37.8 °F 30.23 in Calm     60% 0.00 in meteobridge W/m2
20:04 51.3 °F 37.8 °F 30.23 in Calm     60% 0.00 in meteobridge W/m2
20:09 51.1 °F 37.2 °F 30.23 in Calm     59% 0.00 in meteobridge W/m2
20:14 50.9 °F 37.9 °F 30.22 in Calm     61% 0.00 in meteobridge W/m2
20:19 50.7 °F 38.1 °F 30.22 in Calm     62% 0.00 in meteobridge W/m2
20:24 50.5 °F 37.9 °F 30.23 in Calm     62% 0.00 in meteobridge W/m2
20:29 50.4 °F 37.8 °F 30.23 in Calm     62% 0.00 in meteobridge W/m2
20:34 50.2 °F 37.6 °F 30.23 in Calm     62% 0.00 in meteobridge W/m2
20:39 49.8 °F 37.4 °F 30.23 in Calm     62% 0.00 in meteobridge W/m2
20:44 49.6 °F 37.2 °F 30.23 in Calm     62% 0.00 in meteobridge W/m2
20:49 49.3 °F 37.2 °F 30.23 in Calm     63% 0.00 in meteobridge W/m2
20:54 49.1 °F 37.0 °F 30.23 in Calm     63% 0.00 in meteobridge W/m2
20:59 48.7 °F 37.0 °F 30.23 in Calm     64% 0.00 in meteobridge W/m2
21:04 48.6 °F 36.9 °F 30.23 in Calm     64% 0.00 in meteobridge W/m2
21:09 48.2 °F 37.0 °F 30.23 in Calm     65% 0.00 in meteobridge W/m2
21:14 47.8 °F 37.0 °F 30.23 in Calm     66% 0.00 in meteobridge W/m2
21:19 47.7 °F 36.9 °F 30.23 in Calm     66% 0.00 in meteobridge W/m2
21:24 47.5 °F 37.0 °F 30.23 in Calm     67% 0.00 in meteobridge W/m2
21:29 47.1 °F 37.0 °F 30.23 in Calm     68% 0.00 in meteobridge W/m2
21:34 47.1 °F 36.7 °F 30.23 in Calm     67% 0.00 in meteobridge W/m2
21:39 46.9 °F 36.9 °F 30.23 in Calm     68% 0.00 in meteobridge W/m2
21:44 46.9 °F 36.9 °F 30.23 in Calm     68% 0.00 in meteobridge W/m2
21:49 46.9 °F 36.9 °F 30.23 in Calm     68% 0.00 in meteobridge W/m2
21:54 46.9 °F 36.9 °F 30.23 in Calm     68% 0.00 in meteobridge W/m2
21:59 46.9 °F 36.9 °F 30.23 in Calm     68% 0.00 in meteobridge W/m2
22:04 46.9 °F 37.2 °F 30.23 in Calm     69% 0.00 in meteobridge W/m2
22:09 46.8 °F 37.2 °F 30.23 in Calm     69% 0.00 in meteobridge W/m2
22:14 46.8 °F 37.2 °F 30.23 in Calm     69% 0.00 in meteobridge W/m2
22:19 46.6 °F 37.4 °F 30.23 in Calm     70% 0.00 in meteobridge W/m2
22:24 46.6 °F 37.4 °F 30.23 in Calm     70% 0.00 in meteobridge W/m2
22:29 46.6 °F 37.4 °F 30.23 in Calm     70% 0.00 in meteobridge W/m2
22:34 46.6 °F 37.4 °F 30.23 in Calm     70% 0.00 in meteobridge W/m2
22:39 46.4 °F 37.6 °F 30.23 in Calm     71% 0.00 in meteobridge W/m2
22:44 46.6 °F 38.1 °F 30.23 in Calm     72% 0.00 in meteobridge W/m2
22:49 46.4 °F 37.9 °F 30.23 in Calm     72% 0.00 in meteobridge W/m2
22:54 46.4 °F 37.6 °F 30.23 in Calm     71% 0.00 in meteobridge W/m2
22:59 46.2 °F 37.8 °F 30.22 in Calm     72% 0.00 in meteobridge W/m2
23:04 46.2 °F 38.1 °F 30.22 in Calm     73% 0.00 in meteobridge W/m2
23:09 46.2 °F 37.8 °F 30.22 in Calm     72% 0.00 in meteobridge W/m2
23:14 46.0 °F 37.2 °F 30.22 in Calm     71% 0.00 in meteobridge W/m2
23:19 46.2 °F 37.8 °F 30.22 in Calm     72% 0.00 in meteobridge W/m2
23:24 46.0 °F 37.6 °F 30.22 in Calm     72% 0.00 in meteobridge W/m2
23:29 46.0 °F 37.2 °F 30.22 in Calm     71% 0.00 in meteobridge W/m2
23:34 46.0 °F 37.9 °F 30.22 in Calm     73% 0.00 in meteobridge W/m2
23:39 46.0 °F 37.9 °F 30.22 in Calm     73% 0.00 in meteobridge W/m2
23:44 46.0 °F 37.6 °F 30.22 in Calm     72% 0.00 in meteobridge W/m2
23:49 45.9 °F 37.8 °F 30.22 in Calm     73% 0.00 in meteobridge W/m2
23:54 45.9 °F 37.8 °F 30.22 in Calm     73% 0.00 in meteobridge W/m2
23:59 45.9 °F 37.8 °F 30.22 in Calm     73% 0.00 in meteobridge W/m2
EllijayWeather
Compliments of Weather Underground - 2.5 mb